Minnekata, South Dakota
Current Conditions -  °F | °C
As of 5:34 AM on Monday 22 Dec 2014 (Local Time) from KCUT Reporting Station
Light Snow Light Snow  
Wind Chill: -7°   Ceiling: 3800
Heat Index: -2°   Visibility: 8mi
Dew Point: -6°   Wind: 12mph
Humidity: 75%   Direction: 290°WNW
Pressure: 29.55"   Gusts: 22mph
Location:  43.346°N, 103.483°W
Report Text: KCUT 221234Z AUTO 29010G19KT 8SM -SN SCT030 OVC038 M02/M06 A2955 RMK AO2 T10171056 PNO $
Loading
Personal Weather Stations






























Interactive Weather Map New forecast layout! Learn more

10-Day Weather Forecast

Advertisements
Track Severe Weather on mobile